메인 페이지
METAR-TAF:

METAR-TAF

공항 :

다르에스살람, 탄자니아

위도: 06-52S, 경도: 039-12E, 고도: 55m

현재 날씨관측

예보는 1 시간 10분 전, 15:00시(UTC)에 발표되었습니다.
북북동7kt
온도 29°C
습도 79%
기압 1010 hPa
시정 10km 이상
고도 1600ft 상공 구름 많음
고도 1800ft 상공 구름 조금, 적란운.

METAR: HTDA 181500Z 03007KT 9999 BKN016 FEW018CB 29/25 Q1010 NOSIG

시각: 19:10 (16:10 UTC)

예보

예보는 17 시간 10분 전, 23:00시(UTC)에 발표되었습니다.
예보 대상 시간: 18일 00시부터 19일 06시까지 (UTC)
동북동5kt
시정 10km 이상
고도 1300ft 상공 구름 많음
고도 1400ft 상공 구름 조금, 적란운.
일시적
18일 00시부터 18일 06시까지 (UTC)
전환 중
18일 08시부터 18일 11시까지 (UTC)
북북동15kt
전환 중
18일 12시부터 18일 15시까지 (UTC)

TAF: HTDA 172300Z 1800/1906 06005KT 9999 BKN013 FEW014CB TEMPO 1800/1806 RA BECMG 1808/1811 02015KT BECMG 1812/1815 NSW

4,000개 이상의 공항 관측 자료 및 예보 (METAR 및 TAF 보고).

지도상에서 검색 가능한 기상관측소가 노란 점과 빨간 점으로 표시되어 있습니다.

기상관측소 명을 보려면 표시 위로 마우스를 이동하세요.

날씨 관측과 예보를 보려면 클릭하세요.

지도 변경 : 확대하려면 엑스 표시가 있는 녹색 버튼, 축소하려면 빼기 표시가 있는 녹색 버튼, 다음 페이지의 지도를 보려면 녹색 화살표를 클릭하세요.


METAR-TAF: